createdAt,value
2023-01-25T00:00:48.916Z,2.60
2023-01-25T00:03:16.926Z,2.60
2023-01-25T00:05:44.780Z,2.60
2023-01-25T00:08:12.701Z,2.60
2023-01-25T00:10:40.970Z,2.60
2023-01-25T00:13:08.826Z,2.60
2023-01-25T00:15:36.679Z,2.70
2023-01-25T00:18:06.007Z,2.70
2023-01-25T00:20:33.809Z,2.60
2023-01-25T00:23:01.653Z,2.60
2023-01-25T00:25:29.464Z,2.60
2023-01-25T00:27:57.313Z,2.60
2023-01-25T00:30:44.139Z,2.60
2023-01-25T00:33:49.542Z,2.60
2023-01-25T00:36:42.836Z,2.60
2023-01-25T00:39:14.124Z,2.60
2023-01-25T00:41:42.158Z,2.60
2023-01-25T00:44:10.028Z,2.50
2023-01-25T00:46:38.041Z,2.50
2023-01-25T00:49:05.897Z,2.50
2023-01-25T00:51:34.680Z,2.50
2023-01-25T00:54:03.956Z,2.50
2023-01-25T00:56:31.774Z,2.50
2023-01-25T00:58:59.564Z,2.50
2023-01-25T01:01:27.454Z,2.50
2023-01-25T01:03:55.285Z,2.50
2023-01-25T01:06:23.132Z,2.50
2023-01-25T01:09:13.604Z,2.50
2023-01-25T01:11:41.671Z,2.50
2023-01-25T01:15:05.236Z,2.50
2023-01-25T01:18:28.560Z,2.50
2023-01-25T01:20:56.808Z,2.50
2023-01-25T01:23:24.693Z,2.50
2023-01-25T01:25:54.132Z,2.50
2023-01-25T01:28:22.159Z,2.50
2023-01-25T01:30:49.980Z,2.50
2023-01-25T01:33:17.794Z,2.50
2023-01-25T01:35:46.789Z,2.50
2023-01-25T01:38:14.639Z,2.50
2023-01-25T01:40:46.200Z,2.50
2023-01-25T01:43:19.706Z,2.50
2023-01-25T01:45:54.130Z,2.50
2023-01-25T01:48:28.812Z,2.40
2023-01-25T01:51:01.150Z,2.40
2023-01-25T01:53:31.223Z,2.40
2023-01-25T01:56:03.554Z,2.40
2023-01-25T01:58:33.762Z,2.40
2023-01-25T02:01:02.014Z,2.40
2023-01-25T02:03:30.745Z,2.40
2023-01-25T02:06:02.317Z,2.40
2023-01-25T02:08:33.311Z,2.40
2023-01-25T02:11:02.821Z,2.50
2023-01-25T02:13:33.196Z,2.50
2023-01-25T02:16:01.296Z,2.50
2023-01-25T02:18:29.795Z,2.50
2023-01-25T02:21:00.033Z,2.50
2023-01-25T02:23:33.984Z,2.50
2023-01-25T02:26:05.668Z,2.50
2023-01-25T02:28:37.370Z,2.50
2023-01-25T02:31:05.501Z,2.50
2023-01-25T02:33:33.878Z,2.50
2023-01-25T02:36:18.500Z,2.50
2023-01-25T02:38:51.133Z,2.50
2023-01-25T02:41:25.695Z,2.50
2023-01-25T02:43:54.579Z,2.40
2023-01-25T02:46:27.484Z,2.50
2023-01-25T02:48:56.260Z,2.50
2023-01-25T02:51:25.258Z,2.50
2023-01-25T02:53:53.317Z,2.50
2023-01-25T02:56:23.255Z,2.50
2023-01-25T02:58:51.414Z,2.50
2023-01-25T03:01:19.429Z,2.50
2023-01-25T03:03:47.314Z,2.50
2023-01-25T03:06:15.211Z,2.50
2023-01-25T03:08:43.362Z,2.50
2023-01-25T03:11:11.557Z,2.50
2023-01-25T03:13:40.738Z,2.40
2023-01-25T03:16:10.677Z,2.40
2023-01-25T03:18:39.601Z,2.40
2023-01-25T03:21:09.621Z,2.40
2023-01-25T03:23:37.945Z,2.40
2023-01-25T03:26:07.644Z,2.40
2023-01-25T03:28:35.472Z,2.40
2023-01-25T03:31:05.345Z,2.40
2023-01-25T03:33:33.252Z,2.30
2023-01-25T03:36:02.292Z,2.30
2023-01-25T03:38:30.747Z,2.30
2023-01-25T03:40:58.830Z,2.30
2023-01-25T03:43:27.061Z,2.30
2023-01-25T03:45:55.782Z,2.30
2023-01-25T03:48:25.836Z,2.30
2023-01-25T03:50:56.259Z,2.40
2023-01-25T03:53:29.483Z,2.40
2023-01-25T03:55:59.345Z,2.40
2023-01-25T03:58:27.204Z,2.40
2023-01-25T04:00:57.367Z,2.40
2023-01-25T04:03:27.236Z,2.40
2023-01-25T04:05:56.505Z,2.40
2023-01-25T04:08:25.577Z,2.40
2023-01-25T04:10:53.943Z,2.40
2023-01-25T04:13:22.525Z,2.40
2023-01-25T04:15:50.677Z,2.40
2023-01-25T04:18:18.990Z,2.40
2023-01-25T04:20:54.004Z,2.40
2023-01-25T04:23:22.141Z,2.40
2023-01-25T04:25:54.120Z,2.30
2023-01-25T04:28:21.978Z,2.30
2023-01-25T04:30:49.856Z,2.30
2023-01-25T04:33:18.141Z,2.30
2023-01-25T04:35:46.540Z,2.30
2023-01-25T04:38:16.382Z,2.30
2023-01-25T04:40:45.085Z,2.30
2023-01-25T04:43:14.516Z,2.30
2023-01-25T04:45:42.533Z,2.20
2023-01-25T04:48:12.698Z,2.20
2023-01-25T04:50:42.280Z,2.30
2023-01-25T04:53:11.138Z,2.30
2023-01-25T04:55:40.485Z,2.20
2023-01-25T04:58:08.290Z,2.20
2023-01-25T05:00:36.256Z,2.20
2023-01-25T05:03:04.699Z,2.30
2023-01-25T05:05:32.686Z,2.20
2023-01-25T05:08:00.908Z,2.20
2023-01-25T05:10:28.728Z,2.20
2023-01-25T05:12:57.926Z,2.20
2023-01-25T05:15:25.789Z,2.20
2023-01-25T05:17:53.587Z,2.20
2023-01-25T05:20:21.366Z,2.20
2023-01-25T05:22:49.205Z,2.20
2023-01-25T05:25:31.105Z,2.20
2023-01-25T05:28:00.380Z,2.10
2023-01-25T05:30:28.300Z,2.20
2023-01-25T05:32:56.125Z,2.20
2023-01-25T05:35:24.007Z,2.20
2023-01-25T05:37:51.833Z,2.20
2023-01-25T05:40:19.841Z,2.10
2023-01-25T05:42:54.778Z,2.10
2023-01-25T05:45:24.218Z,2.20
2023-01-25T05:47:55.806Z,2.20
2023-01-25T05:50:24.493Z,2.20
2023-01-25T05:52:52.302Z,2.10
2023-01-25T05:55:20.300Z,2.10
2023-01-25T05:57:48.141Z,2.10
2023-01-25T06:00:16.518Z,2.10
2023-01-25T06:02:45.837Z,2.10
2023-01-25T06:05:13.795Z,2.10
2023-01-25T06:07:41.703Z,2.10
2023-01-25T06:10:10.702Z,2.10
2023-01-25T06:12:39.639Z,2.10
2023-01-25T06:15:08.651Z,2.10
2023-01-25T06:17:37.599Z,2.10
2023-01-25T06:20:08.039Z,2.10
2023-01-25T06:22:36.014Z,2.10
2023-01-25T06:25:03.864Z,2.10
2023-01-25T06:27:31.673Z,2.10
2023-01-25T06:29:59.482Z,2.10
2023-01-25T06:32:32.223Z,2.00
2023-01-25T06:35:00.090Z,2.10
2023-01-25T06:37:29.329Z,2.10
2023-01-25T06:39:57.278Z,2.10
2023-01-25T06:42:25.625Z,2.10
2023-01-25T06:44:53.517Z,2.10
2023-01-25T06:47:21.323Z,2.10
2023-01-25T06:49:49.208Z,2.20
2023-01-25T06:52:17.172Z,2.20
2023-01-25T06:54:46.385Z,2.10
2023-01-25T06:57:14.232Z,2.10
2023-01-25T06:59:42.020Z,2.10
2023-01-25T07:02:15.160Z,2.10
2023-01-25T07:04:43.182Z,2.10
2023-01-25T07:07:11.317Z,2.20
2023-01-25T07:09:39.154Z,2.10
2023-01-25T07:12:08.729Z,2.10
2023-01-25T07:14:36.562Z,2.10
2023-01-25T07:17:04.452Z,2.10
2023-01-25T07:19:32.306Z,2.10
2023-01-25T07:22:00.160Z,2.10
2023-01-25T07:24:29.440Z,2.10
2023-01-25T07:26:57.523Z,2.10
2023-01-25T07:29:26.675Z,2.10
2023-01-25T07:31:54.582Z,2.10
2023-01-25T07:34:22.661Z,2.10
2023-01-25T07:36:50.522Z,2.10
2023-01-25T07:39:18.330Z,2.10
2023-01-25T07:41:46.188Z,2.10
2023-01-25T07:44:14.171Z,2.10
2023-01-25T07:46:43.531Z,2.20
2023-01-25T07:49:11.406Z,2.10
2023-01-25T07:51:39.265Z,2.10
2023-01-25T07:54:07.186Z,2.20
2023-01-25T07:56:37.712Z,2.10
2023-01-25T07:59:08.286Z,2.20
2023-01-25T08:01:36.915Z,2.20
2023-01-25T08:04:07.123Z,2.10
2023-01-25T08:06:39.611Z,2.10
2023-01-25T08:09:09.631Z,2.10
2023-01-25T08:11:38.685Z,2.20
2023-01-25T08:14:06.561Z,2.20
2023-01-25T08:16:34.407Z,2.20
2023-01-25T08:19:03.917Z,2.10
2023-01-25T08:21:35.006Z,2.20
2023-01-25T08:24:05.118Z,2.10
2023-01-25T08:26:33.533Z,2.10
2023-01-25T08:29:03.669Z,2.10
2023-01-25T08:31:33.184Z,2.10
2023-01-25T08:34:02.523Z,2.10
2023-01-25T08:36:30.654Z,2.10
2023-01-25T08:39:01.274Z,2.10
2023-01-25T08:41:31.006Z,2.10
2023-01-25T08:43:59.153Z,2.10
2023-01-25T08:46:30.542Z,2.10
2023-01-25T08:49:01.785Z,2.10
2023-01-25T08:51:32.684Z,2.00
2023-01-25T08:54:05.154Z,2.10
2023-01-25T08:56:33.080Z,2.10
2023-01-25T08:59:00.903Z,2.10
2023-01-25T09:01:28.880Z,2.10
2023-01-25T09:03:56.904Z,2.10
2023-01-25T09:06:25.038Z,2.00
2023-01-25T09:08:52.839Z,2.00
2023-01-25T09:11:23.596Z,2.00
2023-01-25T09:13:52.031Z,2.00
2023-01-25T09:16:28.011Z,2.00
2023-01-25T09:18:57.109Z,2.00
2023-01-25T09:21:25.176Z,2.00
2023-01-25T09:24:09.499Z,2.00
2023-01-25T09:26:40.840Z,1.90
2023-01-25T09:29:11.416Z,1.90
2023-01-25T09:31:43.527Z,2.00
2023-01-25T09:34:12.219Z,2.00
2023-01-25T09:36:40.462Z,1.90
2023-01-25T09:39:08.537Z,1.90
2023-01-25T09:42:21.556Z,2.00
2023-01-25T09:45:09.041Z,1.90
2023-01-25T09:47:45.163Z,1.90
2023-01-25T09:50:26.417Z,1.90
2023-01-25T09:53:27.118Z,1.90
2023-01-25T09:55:58.677Z,1.90
2023-01-25T09:58:33.208Z,1.90
2023-01-25T10:01:14.378Z,2.00
2023-01-25T10:03:49.278Z,1.90
2023-01-25T10:06:20.219Z,1.90
2023-01-25T10:08:58.744Z,1.90
2023-01-25T10:11:29.587Z,1.90
2023-01-25T10:13:59.940Z,1.90
2023-01-25T10:16:33.278Z,1.90
2023-01-25T10:19:12.985Z,2.00
2023-01-25T10:21:44.554Z,1.90
2023-01-25T10:24:33.459Z,2.00
2023-01-25T10:27:09.771Z,2.00
2023-01-25T10:29:39.740Z,2.00
2023-01-25T10:32:15.639Z,2.00
2023-01-25T10:34:56.186Z,2.00
2023-01-25T10:37:28.442Z,2.00
2023-01-25T10:40:04.065Z,2.00
2023-01-25T10:42:38.058Z,2.00
2023-01-25T10:45:12.968Z,1.90
2023-01-25T10:47:44.010Z,1.90
2023-01-25T10:50:47.016Z,1.90
2023-01-25T10:53:30.273Z,2.00
2023-01-25T10:56:19.233Z,1.90
2023-01-25T10:58:48.575Z,2.00
2023-01-25T11:01:27.567Z,2.00
2023-01-25T11:03:55.972Z,2.00
2023-01-25T11:06:33.841Z,2.00
2023-01-25T11:09:02.458Z,2.00
2023-01-25T11:11:37.190Z,2.00
2023-01-25T11:14:17.456Z,2.00
2023-01-25T11:16:47.818Z,2.00
2023-01-25T11:19:29.376Z,2.10
2023-01-25T11:21:59.169Z,2.00
2023-01-25T11:24:29.864Z,2.00
2023-01-25T11:27:17.490Z,2.00
2023-01-25T11:29:47.031Z,2.10
2023-01-25T11:32:22.426Z,2.10
2023-01-25T11:34:51.902Z,2.10
2023-01-25T11:37:32.243Z,2.10
2023-01-25T11:40:13.585Z,2.20
2023-01-25T11:42:52.103Z,2.20
2023-01-25T11:45:45.349Z,2.10
2023-01-25T11:48:32.067Z,2.20
2023-01-25T11:51:05.912Z,2.20
2023-01-25T11:53:47.414Z,2.20
2023-01-25T11:56:28.904Z,2.20
2023-01-25T15:12:28.212Z,1.90
2023-01-25T15:14:58.092Z,1.90
2023-01-25T15:17:39.949Z,1.90
2023-01-25T15:20:28.136Z,1.90
2023-01-25T15:22:57.995Z,1.90
2023-01-25T15:25:26.061Z,1.80
2023-01-25T15:27:55.569Z,1.80
2023-01-25T15:30:23.438Z,1.90
2023-01-25T15:32:51.490Z,1.90
2023-01-25T15:35:21.010Z,1.90
2023-01-25T15:37:49.677Z,1.90
2023-01-25T15:40:18.202Z,1.90
2023-01-25T15:42:46.009Z,1.90
2023-01-25T15:45:15.217Z,1.90
2023-01-25T15:47:43.033Z,1.90
2023-01-25T15:50:19.521Z,1.80
2023-01-25T15:52:48.312Z,1.80
2023-01-25T15:55:16.353Z,1.80
2023-01-25T15:57:46.795Z,1.80
2023-01-25T16:00:19.321Z,1.80
2023-01-25T16:02:47.568Z,1.80
2023-01-25T16:05:15.588Z,1.80
2023-01-25T16:07:45.150Z,1.80
2023-01-25T16:10:24.101Z,1.80
2023-01-25T16:12:52.267Z,1.80
2023-01-25T16:15:21.445Z,1.80
2023-01-25T16:17:49.517Z,1.70
2023-01-25T16:20:20.157Z,1.70
2023-01-25T16:22:48.509Z,1.70
2023-01-25T16:25:16.499Z,1.80
2023-01-25T16:27:44.396Z,1.80
2023-01-25T16:30:20.114Z,1.80
2023-01-25T16:32:52.435Z,1.70
2023-01-25T16:35:21.220Z,1.70
2023-01-25T16:37:50.611Z,1.70
2023-01-25T16:40:25.306Z,1.70
2023-01-25T16:42:53.656Z,1.70
2023-01-25T16:45:21.776Z,1.70
2023-01-25T16:47:51.609Z,1.70
2023-01-25T16:50:22.225Z,1.70
2023-01-25T16:52:51.644Z,1.70
2023-01-25T16:55:20.779Z,1.70
2023-01-25T16:57:51.626Z,1.70
2023-01-25T17:00:20.271Z,1.70
2023-01-25T17:02:58.647Z,1.70
2023-01-25T17:05:32.629Z,1.70
2023-01-25T17:08:00.559Z,1.70
2023-01-25T17:10:29.702Z,1.70
2023-01-25T17:12:57.612Z,1.70
2023-01-25T17:15:25.624Z,1.70
2023-01-25T17:17:53.442Z,1.70
2023-01-25T17:20:21.356Z,1.70
2023-01-25T17:22:51.207Z,1.60
2023-01-25T17:25:19.364Z,1.60
2023-01-25T17:27:47.396Z,1.70
2023-01-25T17:30:15.721Z,1.60
2023-01-25T17:32:43.887Z,1.60
2023-01-25T17:35:11.734Z,1.60
2023-01-25T17:37:41.089Z,1.60
2023-01-25T17:40:12.624Z,1.60
2023-01-25T17:42:40.644Z,1.60
2023-01-25T17:45:09.658Z,1.60
2023-01-25T17:47:37.706Z,1.60
2023-01-25T17:50:06.148Z,1.60
2023-01-25T17:52:33.988Z,1.60
2023-01-25T17:55:01.850Z,1.60
2023-01-25T17:57:31.636Z,1.50
2023-01-25T17:59:59.512Z,1.60
2023-01-25T18:02:27.390Z,1.60
2023-01-25T18:04:55.232Z,1.60
2023-01-25T18:07:23.142Z,1.60
2023-01-25T18:09:51.060Z,1.60
2023-01-25T18:12:20.520Z,1.60
2023-01-25T18:14:49.928Z,1.60
2023-01-25T18:17:17.787Z,1.60
2023-01-25T18:19:45.818Z,1.60
2023-01-25T18:22:14.599Z,1.60
2023-01-25T18:24:43.911Z,1.60
2023-01-25T18:27:22.661Z,1.60
2023-01-25T18:29:56.462Z,1.60
2023-01-25T18:32:24.551Z,1.60
2023-01-25T18:34:52.353Z,1.60
2023-01-25T18:37:21.759Z,1.60
2023-01-25T18:39:54.278Z,1.60
2023-01-25T18:42:23.637Z,1.50
2023-01-25T18:44:52.924Z,1.50
2023-01-25T18:47:22.969Z,1.60
2023-01-25T18:49:52.216Z,1.50
2023-01-25T18:52:21.667Z,1.50
2023-01-25T18:54:49.706Z,1.50
2023-01-25T18:57:18.315Z,1.50
2023-01-25T18:59:46.371Z,1.50
2023-01-25T19:02:17.697Z,1.50
2023-01-25T19:04:46.412Z,1.50
2023-01-25T19:07:14.502Z,1.40
2023-01-25T19:09:43.459Z,1.40
2023-01-25T19:12:11.377Z,1.40
2023-01-25T19:14:39.250Z,1.40
2023-01-25T19:17:08.269Z,1.50
2023-01-25T19:19:37.494Z,1.50
2023-01-25T19:22:05.408Z,1.40
2023-01-25T19:24:33.354Z,1.50
2023-01-25T19:27:01.245Z,1.50
2023-01-25T19:29:29.104Z,1.40
2023-01-25T19:31:57.005Z,1.50
2023-01-25T19:34:25.221Z,1.40
2023-01-25T19:36:55.695Z,1.40
2023-01-25T19:39:23.833Z,1.40
2023-01-25T19:41:52.703Z,1.40
2023-01-25T19:44:20.655Z,1.40
2023-01-25T19:46:48.662Z,1.40
2023-01-25T19:49:16.807Z,1.40
2023-01-25T19:51:48.846Z,1.40
2023-01-25T19:54:18.923Z,1.40
2023-01-25T19:56:48.877Z,1.30
2023-01-25T19:59:19.036Z,1.30
2023-01-25T20:01:47.282Z,1.30
2023-01-25T20:04:17.557Z,1.30
2023-01-25T20:06:45.730Z,1.30
2023-01-25T20:09:14.503Z,1.40
2023-01-25T20:11:46.128Z,1.30
2023-01-25T20:14:15.141Z,1.30
2023-01-25T20:16:43.033Z,1.30
2023-01-25T20:19:12.804Z,1.30
2023-01-25T20:21:41.032Z,1.30
2023-01-25T20:24:10.381Z,1.30
2023-01-25T20:26:42.464Z,1.30
2023-01-25T20:29:12.666Z,1.30
2023-01-25T20:31:42.056Z,1.30
2023-01-25T20:34:13.699Z,1.30
2023-01-25T20:36:42.033Z,1.30
2023-01-25T20:39:12.932Z,1.20
2023-01-25T20:41:40.828Z,1.20
2023-01-25T20:44:09.926Z,1.20
2023-01-25T20:46:40.652Z,1.20
2023-01-25T20:49:10.297Z,1.20
2023-01-25T20:51:38.178Z,1.20
2023-01-25T20:54:06.263Z,1.20
2023-01-25T20:56:34.096Z,1.20
2023-01-25T20:59:01.987Z,1.20
2023-01-25T21:01:33.312Z,1.20
2023-01-25T21:04:02.570Z,1.20
2023-01-25T21:06:30.759Z,1.20
2023-01-25T21:08:59.240Z,1.20
2023-01-25T21:11:27.248Z,1.20
2023-01-25T21:13:55.120Z,1.20
2023-01-25T21:16:24.093Z,1.20
2023-01-25T21:18:54.408Z,1.20
2023-01-25T21:21:25.738Z,1.20
2023-01-25T21:23:55.087Z,1.10
2023-01-25T21:26:25.941Z,1.10
2023-01-25T21:28:55.439Z,1.10
2023-01-25T21:31:25.198Z,1.10
2023-01-25T21:33:53.517Z,1.10
2023-01-25T21:36:23.072Z,1.10
2023-01-25T21:38:52.439Z,1.10
2023-01-25T21:41:22.054Z,1.10
2023-01-25T21:44:07.749Z,1.10
2023-01-25T21:46:35.929Z,1.00
2023-01-25T21:49:24.102Z,1.00
2023-01-25T21:51:54.575Z,1.00
2023-01-25T21:54:23.850Z,1.00
2023-01-25T21:56:53.328Z,1.00
2023-01-25T21:59:21.559Z,1.00
2023-01-25T22:01:50.203Z,1.00
2023-01-25T22:04:19.822Z,1.00
2023-01-25T22:06:48.764Z,1.00
2023-01-25T22:09:18.067Z,1.00
2023-01-25T22:11:46.758Z,1.00
2023-01-25T22:14:15.088Z,0.90
2023-01-25T22:16:42.896Z,1.00
2023-01-25T22:19:10.760Z,1.00
2023-01-25T22:21:38.659Z,0.90
2023-01-25T22:24:07.493Z,1.00
2023-01-25T22:26:47.087Z,0.90
2023-01-25T22:29:15.199Z,0.90
2023-01-25T22:31:43.948Z,0.90
2023-01-25T22:34:11.946Z,0.90
2023-01-25T22:36:39.819Z,0.90
2023-01-25T22:39:07.726Z,0.90
2023-01-25T22:41:38.289Z,0.90
2023-01-25T22:44:06.519Z,0.90
2023-01-25T22:46:35.100Z,0.90
2023-01-25T22:49:03.566Z,0.90
2023-01-25T22:51:31.855Z,0.90
2023-01-25T22:54:00.783Z,0.80
2023-01-25T22:56:30.080Z,0.90
2023-01-25T22:59:00.104Z,0.80
2023-01-25T23:01:30.347Z,0.80
2023-01-25T23:03:58.620Z,0.80
2023-01-25T23:06:27.923Z,0.80
2023-01-25T23:08:56.887Z,0.80
2023-01-25T23:11:25.831Z,0.80
2023-01-25T23:14:11.879Z,0.80
2023-01-25T23:16:41.041Z,0.80
2023-01-25T23:19:07.895Z,0.80
2023-01-25T23:21:35.789Z,0.80
2023-01-25T23:24:04.732Z,0.80
2023-01-25T23:26:37.480Z,0.80
2023-01-25T23:29:07.787Z,0.80
2023-01-25T23:31:35.962Z,0.80
2023-01-25T23:34:07.212Z,0.80
2023-01-25T23:36:38.569Z,0.80
2023-01-25T23:39:06.849Z,0.80
2023-01-25T23:41:35.202Z,0.90
2023-01-25T23:44:03.172Z,0.90
2023-01-25T23:46:31.034Z,0.90
2023-01-25T23:48:58.902Z,0.90
2023-01-25T23:51:28.180Z,0.90
2023-01-25T23:53:57.674Z,0.90
2023-01-25T23:56:25.700Z,0.90
2023-01-25T23:58:53.523Z,0.90
